sensor_id;sensor_type;location;lat;lon;timestamp;P1;durP1;ratioP1;P2;durP2;ratioP2
46757;SDS011;32509;47.750;-3.396;2023-08-17T00:01:55;1.83;;;1.15;;
46757;SDS011;32509;47.750;-3.396;2023-08-17T00:04:21;3.78;;;1.13;;
46757;SDS011;32509;47.750;-3.396;2023-08-17T00:06:47;1.40;;;1.30;;
46757;SDS011;32509;47.750;-3.396;2023-08-17T00:09:13;3.55;;;1.20;;
46757;SDS011;32509;47.750;-3.396;2023-08-17T00:11:39;3.97;;;1.15;;
46757;SDS011;32509;47.750;-3.396;2023-08-17T00:14:04;3.42;;;1.10;;
46757;SDS011;32509;47.750;-3.396;2023-08-17T00:16:30;4.03;;;1.15;;
46757;SDS011;32509;47.750;-3.396;2023-08-17T00:18:56;4.47;;;1.38;;
46757;SDS011;32509;47.750;-3.396;2023-08-17T00:21:22;2.60;;;1.30;;
46757;SDS011;32509;47.750;-3.396;2023-08-17T00:23:48;4.60;;;1.48;;
46757;SDS011;32509;47.750;-3.396;2023-08-17T00:26:14;1.25;;;0.90;;
46757;SDS011;32509;47.750;-3.396;2023-08-17T00:28:40;3.35;;;1.20;;
46757;SDS011;32509;47.750;-3.396;2023-08-17T00:31:06;3.53;;;1.20;;
46757;SDS011;32509;47.750;-3.396;2023-08-17T00:33:32;3.28;;;1.77;;
46757;SDS011;32509;47.750;-3.396;2023-08-17T00:35:57;2.08;;;1.08;;
46757;SDS011;32509;47.750;-3.396;2023-08-17T00:38:24;1.25;;;1.13;;
46757;SDS011;32509;47.750;-3.396;2023-08-17T00:40:49;4.10;;;1.25;;
46757;SDS011;32509;47.750;-3.396;2023-08-17T00:43:15;4.47;;;1.27;;
46757;SDS011;32509;47.750;-3.396;2023-08-17T00:45:41;2.25;;;1.42;;
46757;SDS011;32509;47.750;-3.396;2023-08-17T00:48:09;2.22;;;1.00;;
46757;SDS011;32509;47.750;-3.396;2023-08-17T00:50:35;3.60;;;1.13;;
46757;SDS011;32509;47.750;-3.396;2023-08-17T00:53:03;3.75;;;1.27;;
46757;SDS011;32509;47.750;-3.396;2023-08-17T00:55:29;2.53;;;1.35;;
46757;SDS011;32509;47.750;-3.396;2023-08-17T00:57:55;1.85;;;1.00;;
46757;SDS011;32509;47.750;-3.396;2023-08-17T01:00:22;2.40;;;1.10;;
46757;SDS011;32509;47.750;-3.396;2023-08-17T01:02:51;2.92;;;1.08;;
46757;SDS011;32509;47.750;-3.396;2023-08-17T01:05:19;2.03;;;1.10;;
46757;SDS011;32509;47.750;-3.396;2023-08-17T01:07:45;3.17;;;1.30;;
46757;SDS011;32509;47.750;-3.396;2023-08-17T01:10:11;1.67;;;0.90;;
46757;SDS011;32509;47.750;-3.396;2023-08-17T01:12:48;2.15;;;1.20;;
46757;SDS011;32509;47.750;-3.396;2023-08-17T01:15:32;1.27;;;1.17;;
46757;SDS011;32509;47.750;-3.396;2023-08-17T01:18:44;3.47;;;1.30;;
46757;SDS011;32509;47.750;-3.396;2023-08-17T01:20:58;2.35;;;1.10;;
46757;SDS011;32509;47.750;-3.396;2023-08-17T01:23:25;2.30;;;1.65;;
46757;SDS011;32509;47.750;-3.396;2023-08-17T01:25:51;3.40;;;1.10;;
46757;SDS011;32509;47.750;-3.396;2023-08-17T01:28:18;2.25;;;1.40;;
46757;SDS011;32509;47.750;-3.396;2023-08-17T01:36:11;3.22;;;1.40;;
46757;SDS011;32509;47.750;-3.396;2023-08-17T01:38:44;1.33;;;1.20;;
46757;SDS011;32509;47.750;-3.396;2023-08-17T01:41:11;1.60;;;1.08;;
46757;SDS011;32509;47.750;-3.396;2023-08-17T01:43:41;1.55;;;1.38;;
46757;SDS011;32509;47.750;-3.396;2023-08-17T01:46:13;1.73;;;1.25;;
46757;SDS011;32509;47.750;-3.396;2023-08-17T01:48:40;5.03;;;1.80;;
46757;SDS011;32509;47.750;-3.396;2023-08-17T01:51:10;2.35;;;0.82;;
46757;SDS011;32509;47.750;-3.396;2023-08-17T01:53:37;2.78;;;1.55;;
46757;SDS011;32509;47.750;-3.396;2023-08-17T01:56:03;2.22;;;1.25;;
46757;SDS011;32509;47.750;-3.396;2023-08-17T01:58:29;2.92;;;1.35;;
46757;SDS011;32509;47.750;-3.396;2023-08-17T02:00:55;1.35;;;1.15;;
46757;SDS011;32509;47.750;-3.396;2023-08-17T02:03:20;1.63;;;1.08;;
46757;SDS011;32509;47.750;-3.396;2023-08-17T02:05:46;1.58;;;1.40;;
46757;SDS011;32509;47.750;-3.396;2023-08-17T02:08:12;2.95;;;1.40;;
46757;SDS011;32509;47.750;-3.396;2023-08-17T02:10:38;1.40;;;1.30;;
46757;SDS011;32509;47.750;-3.396;2023-08-17T02:13:04;1.73;;;1.27;;
46757;SDS011;32509;47.750;-3.396;2023-08-17T02:15:30;2.17;;;1.10;;
46757;SDS011;32509;47.750;-3.396;2023-08-17T02:18:00;1.30;;;1.10;;
46757;SDS011;32509;47.750;-3.396;2023-08-17T02:20:26;1.48;;;1.13;;
46757;SDS011;32509;47.750;-3.396;2023-08-17T02:22:52;4.60;;;1.35;;
46757;SDS011;32509;47.750;-3.396;2023-08-17T02:25:17;1.90;;;1.10;;
46757;SDS011;32509;47.750;-3.396;2023-08-17T02:27:43;3.63;;;1.45;;
46757;SDS011;32509;47.750;-3.396;2023-08-17T02:30:09;6.93;;;1.10;;
46757;SDS011;32509;47.750;-3.396;2023-08-17T02:32:35;2.75;;;1.27;;
46757;SDS011;32509;47.750;-3.396;2023-08-17T02:35:01;1.60;;;1.40;;
46757;SDS011;32509;47.750;-3.396;2023-08-17T02:37:27;2.28;;;1.30;;
46757;SDS011;32509;47.750;-3.396;2023-08-17T02:39:53;1.65;;;1.33;;
46757;SDS011;32509;47.750;-3.396;2023-08-17T02:42:18;2.03;;;1.27;;
46757;SDS011;32509;47.750;-3.396;2023-08-17T02:44:44;4.70;;;2.40;;
46757;SDS011;32509;47.750;-3.396;2023-08-17T02:47:10;3.08;;;1.25;;
46757;SDS011;32509;47.750;-3.396;2023-08-17T02:49:36;5.55;;;1.25;;
46757;SDS011;32509;47.750;-3.396;2023-08-17T02:52:02;2.72;;;1.40;;
46757;SDS011;32509;47.750;-3.396;2023-08-17T02:54:27;5.00;;;1.33;;
46757;SDS011;32509;47.750;-3.396;2023-08-17T02:56:53;2.35;;;1.20;;
46757;SDS011;32509;47.750;-3.396;2023-08-17T02:59:19;3.20;;;1.40;;
46757;SDS011;32509;47.750;-3.396;2023-08-17T03:01:45;2.65;;;1.38;;
46757;SDS011;32509;47.750;-3.396;2023-08-17T03:04:11;3.75;;;1.83;;
46757;SDS011;32509;47.750;-3.396;2023-08-17T03:06:36;4.57;;;1.38;;
46757;SDS011;32509;47.750;-3.396;2023-08-17T03:09:02;3.05;;;1.75;;
46757;SDS011;32509;47.750;-3.396;2023-08-17T03:11:28;2.05;;;1.25;;
46757;SDS011;32509;47.750;-3.396;2023-08-17T03:13:54;2.28;;;1.40;;
46757;SDS011;32509;47.750;-3.396;2023-08-17T03:16:25;2.97;;;1.33;;
46757;SDS011;32509;47.750;-3.396;2023-08-17T03:18:52;1.75;;;1.27;;
46757;SDS011;32509;47.750;-3.396;2023-08-17T03:21:17;3.58;;;0.98;;
46757;SDS011;32509;47.750;-3.396;2023-08-17T03:23:44;2.08;;;1.30;;
46757;SDS011;32509;47.750;-3.396;2023-08-17T03:26:10;1.05;;;0.95;;
46757;SDS011;32509;47.750;-3.396;2023-08-17T03:28:36;2.58;;;1.33;;
46757;SDS011;32509;47.750;-3.396;2023-08-17T03:31:02;3.65;;;1.50;;
46757;SDS011;32509;47.750;-3.396;2023-08-17T03:33:28;4.47;;;1.65;;
46757;SDS011;32509;47.750;-3.396;2023-08-17T03:35:54;1.95;;;1.33;;
46757;SDS011;32509;47.750;-3.396;2023-08-17T03:38:20;1.65;;;1.30;;
46757;SDS011;32509;47.750;-3.396;2023-08-17T03:40:46;2.88;;;1.55;;
46757;SDS011;32509;47.750;-3.396;2023-08-17T03:43:12;1.20;;;1.17;;
46757;SDS011;32509;47.750;-3.396;2023-08-17T03:45:40;2.15;;;1.60;;
46757;SDS011;32509;47.750;-3.396;2023-08-17T03:48:06;3.28;;;1.30;;
46757;SDS011;32509;47.750;-3.396;2023-08-17T03:50:32;4.03;;;1.42;;
46757;SDS011;32509;47.750;-3.396;2023-08-17T03:52:58;3.63;;;1.85;;
46757;SDS011;32509;47.750;-3.396;2023-08-17T03:55:24;4.55;;;1.80;;
46757;SDS011;32509;47.750;-3.396;2023-08-17T03:57:50;1.67;;;1.38;;
46757;SDS011;32509;47.750;-3.396;2023-08-17T04:00:15;2.20;;;1.60;;
46757;SDS011;32509;47.750;-3.396;2023-08-17T04:02:43;1.60;;;1.27;;
46757;SDS011;32509;47.750;-3.396;2023-08-17T04:05:09;4.22;;;1.40;;
46757;SDS011;32509;47.750;-3.396;2023-08-17T04:07:38;1.77;;;1.30;;
46757;SDS011;32509;47.750;-3.396;2023-08-17T04:10:07;2.17;;;1.50;;
46757;SDS011;32509;47.750;-3.396;2023-08-17T04:12:33;2.38;;;1.48;;
46757;SDS011;32509;47.750;-3.396;2023-08-17T04:14:59;2.33;;;1.50;;
46757;SDS011;32509;47.750;-3.396;2023-08-17T04:17:25;2.88;;;1.17;;
46757;SDS011;32509;47.750;-3.396;2023-08-17T04:19:51;3.20;;;1.33;;
46757;SDS011;32509;47.750;-3.396;2023-08-17T04:22:17;1.30;;;1.20;;
46757;SDS011;32509;47.750;-3.396;2023-08-17T04:24:44;2.08;;;1.63;;
46757;SDS011;32509;47.750;-3.396;2023-08-17T04:27:09;2.53;;;1.42;;
46757;SDS011;32509;47.750;-3.396;2023-08-17T04:29:37;2.80;;;1.50;;
46757;SDS011;32509;47.750;-3.396;2023-08-17T04:32:03;2.20;;;1.70;;
46757;SDS011;32509;47.750;-3.396;2023-08-17T04:34:29;1.80;;;1.70;;
46757;SDS011;32509;47.750;-3.396;2023-08-17T04:36:55;4.50;;;1.42;;
46757;SDS011;32509;47.750;-3.396;2023-08-17T04:39:20;1.70;;;1.55;;
46757;SDS011;32509;47.750;-3.396;2023-08-17T04:41:46;2.20;;;1.25;;
46757;SDS011;32509;47.750;-3.396;2023-08-17T04:44:13;1.88;;;1.35;;
46757;SDS011;32509;47.750;-3.396;2023-08-17T04:46:38;2.92;;;1.48;;
46757;SDS011;32509;47.750;-3.396;2023-08-17T04:49:04;1.83;;;1.65;;
46757;SDS011;32509;47.750;-3.396;2023-08-17T04:51:30;2.42;;;1.35;;
46757;SDS011;32509;47.750;-3.396;2023-08-17T04:53:57;2.33;;;1.23;;
46757;SDS011;32509;47.750;-3.396;2023-08-17T04:56:22;1.98;;;1.38;;
46757;SDS011;32509;47.750;-3.396;2023-08-17T04:58:49;3.55;;;1.65;;
46757;SDS011;32509;47.750;-3.396;2023-08-17T05:01:14;3.15;;;1.98;;
46757;SDS011;32509;47.750;-3.396;2023-08-17T05:03:40;2.05;;;1.40;;
46757;SDS011;32509;47.750;-3.396;2023-08-17T05:06:06;2.67;;;1.67;;
46757;SDS011;32509;47.750;-3.396;2023-08-17T05:08:32;2.65;;;1.80;;
46757;SDS011;32509;47.750;-3.396;2023-08-17T05:10:57;2.00;;;1.80;;
46757;SDS011;32509;47.750;-3.396;2023-08-17T05:13:23;3.28;;;1.70;;
46757;SDS011;32509;47.750;-3.396;2023-08-17T05:15:49;1.67;;;1.38;;
46757;SDS011;32509;47.750;-3.396;2023-08-17T05:18:14;2.00;;;1.80;;
46757;SDS011;32509;47.750;-3.396;2023-08-17T05:20:40;1.92;;;1.50;;
46757;SDS011;32509;47.750;-3.396;2023-08-17T05:23:06;2.25;;;1.85;;
46757;SDS011;32509;47.750;-3.396;2023-08-17T05:25:33;1.40;;;1.30;;
46757;SDS011;32509;47.750;-3.396;2023-08-17T05:27:58;2.30;;;1.52;;
46757;SDS011;32509;47.750;-3.396;2023-08-17T05:30:24;2.20;;;1.50;;
46757;SDS011;32509;47.750;-3.396;2023-08-17T05:32:50;2.50;;;1.42;;
46757;SDS011;32509;47.750;-3.396;2023-08-17T05:35:16;2.22;;;1.58;;
46757;SDS011;32509;47.750;-3.396;2023-08-17T05:37:42;3.45;;;1.45;;
46757;SDS011;32509;47.750;-3.396;2023-08-17T05:40:07;2.00;;;1.70;;
46757;SDS011;32509;47.750;-3.396;2023-08-17T05:42:36;1.42;;;1.33;;
46757;SDS011;32509;47.750;-3.396;2023-08-17T05:45:02;3.05;;;1.98;;
46757;SDS011;32509;47.750;-3.396;2023-08-17T05:47:28;2.22;;;1.70;;
46757;SDS011;32509;47.750;-3.396;2023-08-17T05:49:54;2.35;;;1.52;;
46757;SDS011;32509;47.750;-3.396;2023-08-17T05:52:20;2.08;;;1.65;;
46757;SDS011;32509;47.750;-3.396;2023-08-17T05:54:45;1.70;;;1.60;;
46757;SDS011;32509;47.750;-3.396;2023-08-17T05:57:11;2.92;;;1.70;;
46757;SDS011;32509;47.750;-3.396;2023-08-17T05:59:37;3.28;;;1.70;;
46757;SDS011;32509;47.750;-3.396;2023-08-17T06:02:03;3.17;;;1.95;;
46757;SDS011;32509;47.750;-3.396;2023-08-17T06:04:38;3.97;;;1.80;;
46757;SDS011;32509;47.750;-3.396;2023-08-17T06:07:03;2.05;;;1.80;;
46757;SDS011;32509;47.750;-3.396;2023-08-17T06:09:29;4.28;;;1.50;;
46757;SDS011;32509;47.750;-3.396;2023-08-17T06:11:55;4.07;;;2.10;;
46757;SDS011;32509;47.750;-3.396;2023-08-17T06:14:21;3.42;;;1.73;;
46757;SDS011;32509;47.750;-3.396;2023-08-17T06:16:47;2.78;;;1.65;;
46757;SDS011;32509;47.750;-3.396;2023-08-17T06:19:13;1.88;;;1.60;;
46757;SDS011;32509;47.750;-3.396;2023-08-17T06:21:39;2.97;;;1.77;;
46757;SDS011;32509;47.750;-3.396;2023-08-17T06:24:04;3.90;;;1.70;;
46757;SDS011;32509;47.750;-3.396;2023-08-17T06:26:31;4.00;;;2.13;;
46757;SDS011;32509;47.750;-3.396;2023-08-17T06:28:56;3.80;;;1.83;;
46757;SDS011;32509;47.750;-3.396;2023-08-17T06:31:22;3.47;;;2.00;;
46757;SDS011;32509;47.750;-3.396;2023-08-17T06:33:52;3.17;;;2.05;;
46757;SDS011;32509;47.750;-3.396;2023-08-17T06:36:18;2.45;;;1.65;;
46757;SDS011;32509;47.750;-3.396;2023-08-17T06:38:44;5.50;;;2.65;;
46757;SDS011;32509;47.750;-3.396;2023-08-17T06:41:10;4.75;;;1.98;;
46757;SDS011;32509;47.750;-3.396;2023-08-17T06:43:36;3.78;;;1.80;;
46757;SDS011;32509;47.750;-3.396;2023-08-17T06:46:01;3.25;;;2.00;;
46757;SDS011;32509;47.750;-3.396;2023-08-17T06:48:27;7.35;;;3.20;;
46757;SDS011;32509;47.750;-3.396;2023-08-17T06:50:53;3.17;;;2.00;;
46757;SDS011;32509;47.750;-3.396;2023-08-17T06:53:19;4.47;;;1.65;;
46757;SDS011;32509;47.750;-3.396;2023-08-17T06:55:45;2.63;;;1.83;;
46757;SDS011;32509;47.750;-3.396;2023-08-17T06:58:11;3.05;;;2.10;;
46757;SDS011;32509;47.750;-3.396;2023-08-17T07:00:37;4.95;;;2.35;;
46757;SDS011;32509;47.750;-3.396;2023-08-17T07:03:05;2.15;;;1.95;;
46757;SDS011;32509;47.750;-3.396;2023-08-17T07:05:31;3.38;;;1.85;;
46757;SDS011;32509;47.750;-3.396;2023-08-17T07:07:57;3.33;;;1.98;;
46757;SDS011;32509;47.750;-3.396;2023-08-17T07:10:24;5.07;;;2.03;;
46757;SDS011;32509;47.750;-3.396;2023-08-17T07:12:50;2.53;;;2.30;;
46757;SDS011;32509;47.750;-3.396;2023-08-17T07:15:16;4.72;;;1.80;;
46757;SDS011;32509;47.750;-3.396;2023-08-17T07:17:42;3.60;;;2.20;;
46757;SDS011;32509;47.750;-3.396;2023-08-17T07:20:08;3.25;;;2.33;;
46757;SDS011;32509;47.750;-3.396;2023-08-17T07:22:34;2.05;;;1.75;;
46757;SDS011;32509;47.750;-3.396;2023-08-17T07:25:00;3.70;;;2.25;;
46757;SDS011;32509;47.750;-3.396;2023-08-17T07:27:26;4.18;;;2.40;;
46757;SDS011;32509;47.750;-3.396;2023-08-17T07:29:52;7.63;;;2.97;;
46757;SDS011;32509;47.750;-3.396;2023-08-17T07:32:18;3.42;;;1.80;;
46757;SDS011;32509;47.750;-3.396;2023-08-17T07:34:44;3.97;;;2.15;;
46757;SDS011;32509;47.750;-3.396;2023-08-17T07:37:09;4.63;;;2.38;;
46757;SDS011;32509;47.750;-3.396;2023-08-17T07:39:35;8.80;;;2.63;;
46757;SDS011;32509;47.750;-3.396;2023-08-17T07:42:01;4.28;;;2.47;;
46757;SDS011;32509;47.750;-3.396;2023-08-17T07:44:27;6.10;;;2.08;;
46757;SDS011;32509;47.750;-3.396;2023-08-17T07:46:53;4.88;;;2.30;;
46757;SDS011;32509;47.750;-3.396;2023-08-17T07:49:19;4.90;;;2.20;;
46757;SDS011;32509;47.750;-3.396;2023-08-17T07:51:48;2.53;;;1.98;;
46757;SDS011;32509;47.750;-3.396;2023-08-17T07:54:14;2.40;;;2.20;;
46757;SDS011;32509;47.750;-3.396;2023-08-17T07:56:39;3.00;;;2.40;;
46757;SDS011;32509;47.750;-3.396;2023-08-17T07:59:05;5.28;;;2.30;;
46757;SDS011;32509;47.750;-3.396;2023-08-17T08:01:31;4.70;;;2.22;;
46757;SDS011;32509;47.750;-3.396;2023-08-17T08:03:57;5.28;;;2.10;;
46757;SDS011;32509;47.750;-3.396;2023-08-17T08:06:23;5.95;;;2.70;;
46757;SDS011;32509;47.750;-3.396;2023-08-17T08:08:48;3.47;;;2.67;;
46757;SDS011;32509;47.750;-3.396;2023-08-17T08:11:14;4.85;;;2.63;;
46757;SDS011;32509;47.750;-3.396;2023-08-17T08:13:40;2.83;;;2.22;;
46757;SDS011;32509;47.750;-3.396;2023-08-17T08:16:06;6.43;;;2.78;;
46757;SDS011;32509;47.750;-3.396;2023-08-17T08:18:32;4.82;;;2.42;;
46757;SDS011;32509;47.750;-3.396;2023-08-17T08:20:57;4.03;;;2.42;;
46757;SDS011;32509;47.750;-3.396;2023-08-17T08:23:23;3.67;;;2.47;;
46757;SDS011;32509;47.750;-3.396;2023-08-17T08:25:49;2.50;;;2.03;;
46757;SDS011;32509;47.750;-3.396;2023-08-17T08:28:15;3.90;;;2.25;;
46757;SDS011;32509;47.750;-3.396;2023-08-17T08:30:40;5.65;;;2.70;;
46757;SDS011;32509;47.750;-3.396;2023-08-17T08:33:06;4.20;;;2.47;;
46757;SDS011;32509;47.750;-3.396;2023-08-17T08:35:32;4.60;;;2.90;;
46757;SDS011;32509;47.750;-3.396;2023-08-17T08:37:58;5.18;;;2.60;;
46757;SDS011;32509;47.750;-3.396;2023-08-17T08:40:27;5.25;;;2.40;;
46757;SDS011;32509;47.750;-3.396;2023-08-17T08:42:54;4.50;;;2.65;;
46757;SDS011;32509;47.750;-3.396;2023-08-17T08:45:23;4.72;;;2.53;;
46757;SDS011;32509;47.750;-3.396;2023-08-17T08:47:50;2.47;;;2.28;;
46757;SDS011;32509;47.750;-3.396;2023-08-17T08:50:18;3.70;;;2.58;;
46757;SDS011;32509;47.750;-3.396;2023-08-17T08:52:50;4.20;;;2.33;;
46757;SDS011;32509;47.750;-3.396;2023-08-17T08:55:23;3.08;;;2.60;;
46757;SDS011;32509;47.750;-3.396;2023-08-17T08:57:53;7.55;;;3.53;;
46757;SDS011;32509;47.750;-3.396;2023-08-17T09:00:19;5.53;;;3.10;;
46757;SDS011;32509;47.750;-3.396;2023-08-17T09:02:46;5.20;;;2.55;;
46757;SDS011;32509;47.750;-3.396;2023-08-17T09:05:12;3.35;;;2.58;;
46757;SDS011;32509;47.750;-3.396;2023-08-17T09:07:39;5.22;;;2.80;;
46757;SDS011;32509;47.750;-3.396;2023-08-17T09:10:06;3.95;;;2.92;;
46757;SDS011;32509;47.750;-3.396;2023-08-17T09:12:32;5.80;;;2.53;;
46757;SDS011;32509;47.750;-3.396;2023-08-17T09:14:58;4.40;;;2.55;;
46757;SDS011;32509;47.750;-3.396;2023-08-17T09:17:27;4.18;;;3.00;;
46757;SDS011;32509;47.750;-3.396;2023-08-17T09:19:53;2.08;;;1.50;;
46757;SDS011;32509;47.750;-3.396;2023-08-17T09:22:23;13.25;;;3.60;;
46757;SDS011;32509;47.750;-3.396;2023-08-17T09:24:49;6.07;;;2.65;;
46757;SDS011;32509;47.750;-3.396;2023-08-17T09:27:15;5.65;;;3.53;;
46757;SDS011;32509;47.750;-3.396;2023-08-17T09:29:44;4.57;;;3.45;;
46757;SDS011;32509;47.750;-3.396;2023-08-17T09:32:11;3.85;;;2.60;;
46757;SDS011;32509;47.750;-3.396;2023-08-17T09:34:41;3.95;;;3.47;;
46757;SDS011;32509;47.750;-3.396;2023-08-17T09:37:08;5.20;;;2.90;;
46757;SDS011;32509;47.750;-3.396;2023-08-17T09:39:36;3.40;;;3.05;;
46757;SDS011;32509;47.750;-3.396;2023-08-17T09:42:02;4.43;;;2.67;;
46757;SDS011;32509;47.750;-3.396;2023-08-17T09:44:28;4.60;;;2.88;;
46757;SDS011;32509;47.750;-3.396;2023-08-17T09:46:57;5.53;;;3.22;;
46757;SDS011;32509;47.750;-3.396;2023-08-17T09:49:23;7.95;;;2.80;;
46757;SDS011;32509;47.750;-3.396;2023-08-17T09:51:49;2.90;;;2.60;;
46757;SDS011;32509;47.750;-3.396;2023-08-17T09:54:24;2.10;;;1.95;;
46757;SDS011;32509;47.750;-3.396;2023-08-17T09:56:53;6.07;;;2.53;;
46757;SDS011;32509;47.750;-3.396;2023-08-17T09:59:19;5.13;;;3.65;;
46757;SDS011;32509;47.750;-3.396;2023-08-17T10:01:49;6.95;;;3.25;;
46757;SDS011;32509;47.750;-3.396;2023-08-17T10:04:15;9.20;;;3.58;;
46757;SDS011;32509;47.750;-3.396;2023-08-17T10:06:54;3.17;;;2.75;;
46757;SDS011;32509;47.750;-3.396;2023-08-17T10:09:32;9.50;;;3.78;;
46757;SDS011;32509;47.750;-3.396;2023-08-17T10:12:06;6.88;;;3.70;;
46757;SDS011;32509;47.750;-3.396;2023-08-17T10:17:07;6.85;;;3.58;;
46757;SDS011;32509;47.750;-3.396;2023-08-17T10:22:15;5.88;;;2.97;;
46757;SDS011;32509;47.750;-3.396;2023-08-17T10:24:51;6.18;;;3.10;;
46757;SDS011;32509;47.750;-3.396;2023-08-17T10:27:18;7.28;;;3.55;;
46757;SDS011;32509;47.750;-3.396;2023-08-17T10:29:45;3.90;;;3.25;;
46757;SDS011;32509;47.750;-3.396;2023-08-17T10:32:12;6.63;;;3.28;;
46757;SDS011;32509;47.750;-3.396;2023-08-17T10:34:39;3.55;;;1.90;;
46757;SDS011;32509;47.750;-3.396;2023-08-17T10:37:06;5.47;;;2.63;;
46757;SDS011;32509;47.750;-3.396;2023-08-17T10:39:32;7.15;;;3.00;;
46757;SDS011;32509;47.750;-3.396;2023-08-17T10:41:59;3.00;;;2.50;;
46757;SDS011;32509;47.750;-3.396;2023-08-17T10:44:45;7.70;;;3.13;;
46757;SDS011;32509;47.750;-3.396;2023-08-17T10:49:49;7.78;;;3.70;;
46757;SDS011;32509;47.750;-3.396;2023-08-17T10:52:35;1.95;;;1.73;;
46757;SDS011;32509;47.750;-3.396;2023-08-17T10:55:05;2.55;;;2.33;;
46757;SDS011;32509;47.750;-3.396;2023-08-17T10:57:36;2.22;;;1.40;;
46757;SDS011;32509;47.750;-3.396;2023-08-17T11:00:07;2.47;;;2.20;;
46757;SDS011;32509;47.750;-3.396;2023-08-17T11:02:33;3.45;;;3.13;;
46757;SDS011;32509;47.750;-3.396;2023-08-17T11:05:02;4.18;;;2.45;;
46757;SDS011;32509;47.750;-3.396;2023-08-17T11:07:39;9.43;;;3.53;;
46757;SDS011;32509;47.750;-3.396;2023-08-17T11:12:43;2.80;;;2.60;;
46757;SDS011;32509;47.750;-3.396;2023-08-17T11:15:09;7.07;;;3.25;;
46757;SDS011;32509;47.750;-3.396;2023-08-17T11:17:35;3.22;;;2.95;;
46757;SDS011;32509;47.750;-3.396;2023-08-17T11:20:01;4.22;;;3.00;;
46757;SDS011;32509;47.750;-3.396;2023-08-17T11:22:29;3.30;;;3.00;;
46757;SDS011;32509;47.750;-3.396;2023-08-17T11:24:55;3.90;;;1.80;;
46757;SDS011;32509;47.750;-3.396;2023-08-17T11:27:21;4.40;;;2.60;;
46757;SDS011;32509;47.750;-3.396;2023-08-17T11:29:53;5.80;;;2.88;;
46757;SDS011;32509;47.750;-3.396;2023-08-17T11:32:20;3.15;;;2.85;;
46757;SDS011;32509;47.750;-3.396;2023-08-17T11:34:46;5.55;;;3.13;;
46757;SDS011;32509;47.750;-3.396;2023-08-17T11:37:11;2.58;;;2.30;;
46757;SDS011;32509;47.750;-3.396;2023-08-17T11:39:37;2.55;;;2.30;;
46757;SDS011;32509;47.750;-3.396;2023-08-17T11:42:03;7.47;;;2.80;;
46757;SDS011;32509;47.750;-3.396;2023-08-17T11:44:29;2.17;;;2.08;;
46757;SDS011;32509;47.750;-3.396;2023-08-17T11:46:55;6.63;;;3.85;;
46757;SDS011;32509;47.750;-3.396;2023-08-17T11:49:22;4.70;;;3.10;;
46757;SDS011;32509;47.750;-3.396;2023-08-17T11:51:49;6.75;;;3.67;;
46757;SDS011;32509;47.750;-3.396;2023-08-17T11:54:16;4.30;;;2.78;;
46757;SDS011;32509;47.750;-3.396;2023-08-17T11:56:42;4.97;;;2.88;;
46757;SDS011;32509;47.750;-3.396;2023-08-17T11:59:10;4.28;;;3.08;;
46757;SDS011;32509;47.750;-3.396;2023-08-17T12:01:43;4.20;;;2.60;;
46757;SDS011;32509;47.750;-3.396;2023-08-17T12:04:09;5.45;;;2.80;;
46757;SDS011;32509;47.750;-3.396;2023-08-17T12:06:37;8.77;;;4.20;;
46757;SDS011;32509;47.750;-3.396;2023-08-17T12:09:12;7.57;;;3.10;;
46757;SDS011;32509;47.750;-3.396;2023-08-17T12:11:39;4.80;;;3.25;;
46757;SDS011;32509;47.750;-3.396;2023-08-17T12:14:11;3.72;;;3.13;;
46757;SDS011;32509;47.750;-3.396;2023-08-17T12:16:46;2.47;;;2.30;;
46757;SDS011;32509;47.750;-3.396;2023-08-17T12:19:13;5.97;;;2.35;;
46757;SDS011;32509;47.750;-3.396;2023-08-17T12:21:42;3.25;;;2.95;;
46757;SDS011;32509;47.750;-3.396;2023-08-17T12:24:08;6.07;;;3.15;;
46757;SDS011;32509;47.750;-3.396;2023-08-17T12:26:40;2.88;;;2.67;;
46757;SDS011;32509;47.750;-3.396;2023-08-17T12:29:07;5.28;;;2.75;;
46757;SDS011;32509;47.750;-3.396;2023-08-17T12:52:17;10.38;;;3.72;;
46757;SDS011;32509;47.750;-3.396;2023-08-17T12:54:42;3.80;;;2.80;;
46757;SDS011;32509;47.750;-3.396;2023-08-17T12:57:08;5.53;;;3.28;;
46757;SDS011;32509;47.750;-3.396;2023-08-17T12:59:34;12.50;;;3.70;;
46757;SDS011;32509;47.750;-3.396;2023-08-17T13:02:00;19.42;;;6.35;;
46757;SDS011;32509;47.750;-3.396;2023-08-17T13:04:25;7.85;;;4.32;;
46757;SDS011;32509;47.750;-3.396;2023-08-17T13:06:51;2.78;;;2.58;;
46757;SDS011;32509;47.750;-3.396;2023-08-17T13:09:18;2.22;;;2.03;;
46757;SDS011;32509;47.750;-3.396;2023-08-17T13:11:44;6.88;;;3.25;;
46757;SDS011;32509;47.750;-3.396;2023-08-17T13:14:11;4.78;;;3.35;;
46757;SDS011;32509;47.750;-3.396;2023-08-17T13:16:39;2.80;;;2.30;;
46757;SDS011;32509;47.750;-3.396;2023-08-17T13:19:04;3.45;;;3.15;;
46757;SDS011;32509;47.750;-3.396;2023-08-17T13:21:30;4.47;;;3.78;;
46757;SDS011;32509;47.750;-3.396;2023-08-17T13:23:56;8.32;;;4.30;;
46757;SDS011;32509;47.750;-3.396;2023-08-17T13:26:22;4.13;;;3.70;;
46757;SDS011;32509;47.750;-3.396;2023-08-17T13:28:47;6.72;;;3.88;;
46757;SDS011;32509;47.750;-3.396;2023-08-17T13:31:13;9.23;;;4.22;;
46757;SDS011;32509;47.750;-3.396;2023-08-17T13:33:39;7.30;;;3.80;;
46757;SDS011;32509;47.750;-3.396;2023-08-17T13:36:05;6.25;;;3.92;;
46757;SDS011;32509;47.750;-3.396;2023-08-17T13:38:31;11.85;;;4.45;;
46757;SDS011;32509;47.750;-3.396;2023-08-17T13:40:57;5.28;;;3.60;;
46757;SDS011;32509;47.750;-3.396;2023-08-17T13:43:22;7.95;;;3.88;;
46757;SDS011;32509;47.750;-3.396;2023-08-17T13:45:48;8.88;;;4.07;;
46757;SDS011;32509;47.750;-3.396;2023-08-17T13:48:14;8.13;;;3.28;;
46757;SDS011;32509;47.750;-3.396;2023-08-17T13:50:40;9.10;;;3.50;;
46757;SDS011;32509;47.750;-3.396;2023-08-17T13:53:06;6.53;;;3.45;;
46757;SDS011;32509;47.750;-3.396;2023-08-17T13:55:31;4.93;;;2.95;;
46757;SDS011;32509;47.750;-3.396;2023-08-17T13:57:57;10.52;;;3.60;;
46757;SDS011;32509;47.750;-3.396;2023-08-17T14:00:24;8.05;;;3.88;;
46757;SDS011;32509;47.750;-3.396;2023-08-17T14:02:50;5.43;;;3.45;;
46757;SDS011;32509;47.750;-3.396;2023-08-17T14:05:16;5.93;;;3.00;;
46757;SDS011;32509;47.750;-3.396;2023-08-17T14:07:42;4.70;;;3.47;;
46757;SDS011;32509;47.750;-3.396;2023-08-17T14:10:08;6.25;;;3.63;;
46757;SDS011;32509;47.750;-3.396;2023-08-17T14:12:34;7.20;;;3.80;;
46757;SDS011;32509;47.750;-3.396;2023-08-17T14:14:59;5.13;;;3.50;;
46757;SDS011;32509;47.750;-3.396;2023-08-17T14:17:25;7.97;;;4.40;;
46757;SDS011;32509;47.750;-3.396;2023-08-17T14:19:51;8.13;;;3.67;;
46757;SDS011;32509;47.750;-3.396;2023-08-17T14:22:17;4.60;;;3.35;;
46757;SDS011;32509;47.750;-3.396;2023-08-17T14:24:42;8.05;;;4.32;;
46757;SDS011;32509;47.750;-3.396;2023-08-17T14:27:08;5.10;;;3.70;;
46757;SDS011;32509;47.750;-3.396;2023-08-17T14:29:34;6.20;;;3.70;;
46757;SDS011;32509;47.750;-3.396;2023-08-17T14:31:59;5.55;;;3.85;;
46757;SDS011;32509;47.750;-3.396;2023-08-17T14:34:25;8.32;;;3.45;;
46757;SDS011;32509;47.750;-3.396;2023-08-17T14:36:51;4.85;;;2.97;;
46757;SDS011;32509;47.750;-3.396;2023-08-17T14:39:17;7.82;;;3.08;;
46757;SDS011;32509;47.750;-3.396;2023-08-17T14:41:42;4.20;;;2.83;;
46757;SDS011;32509;47.750;-3.396;2023-08-17T14:44:08;3.67;;;2.40;;
46757;SDS011;32509;47.750;-3.396;2023-08-17T14:46:34;4.97;;;2.60;;
46757;SDS011;32509;47.750;-3.396;2023-08-17T14:49:00;5.70;;;3.00;;
46757;SDS011;32509;47.750;-3.396;2023-08-17T14:51:27;5.20;;;3.13;;
46757;SDS011;32509;47.750;-3.396;2023-08-17T14:53:53;4.60;;;3.38;;
46757;SDS011;32509;47.750;-3.396;2023-08-17T14:56:19;3.13;;;2.85;;
46757;SDS011;32509;47.750;-3.396;2023-08-17T14:58:45;4.15;;;3.13;;
46757;SDS011;32509;47.750;-3.396;2023-08-17T15:01:11;2.95;;;2.45;;
46757;SDS011;32509;47.750;-3.396;2023-08-17T15:03:37;2.80;;;2.60;;
46757;SDS011;32509;47.750;-3.396;2023-08-17T15:06:08;4.03;;;2.63;;
46757;SDS011;32509;47.750;-3.396;2023-08-17T15:08:37;6.55;;;3.38;;